createdAt,value
2024-02-23T00:01:58.846Z,97745.13
2024-02-23T00:04:31.105Z,97744.95
2024-02-23T00:07:04.574Z,97749.23
2024-02-23T00:09:36.925Z,97752.86
2024-02-23T00:12:10.885Z,97757.85
2024-02-23T00:14:43.189Z,97759.57
2024-02-23T00:17:15.408Z,97747.94
2024-02-23T00:19:50.376Z,97753.74
2024-02-23T00:22:22.601Z,97750.85
2024-02-23T00:24:54.737Z,97743.64
2024-02-23T00:27:28.537Z,97740.73
2024-02-23T00:30:00.667Z,97741.76
2024-02-23T00:32:33.017Z,97747.09
2024-02-23T00:35:05.573Z,97747.27
2024-02-23T00:37:37.623Z,97740.42
2024-02-23T00:40:11.979Z,97738.52
2024-02-23T00:42:44.165Z,97741.62
2024-02-23T00:45:16.306Z,97735.77
2024-02-23T00:47:49.299Z,97731.14
2024-02-23T00:50:22.164Z,97734.06
2024-02-23T00:52:54.605Z,97731.67
2024-02-23T00:55:28.022Z,97732.71
2024-02-23T00:58:00.559Z,97729.98
2024-02-23T01:00:33.600Z,97724.67
2024-02-23T01:03:06.433Z,97719.71
2024-02-23T01:05:39.624Z,97718.69
2024-02-23T01:08:12.124Z,97719.89
2024-02-23T01:10:44.324Z,97720.25
2024-02-23T01:13:16.380Z,97724.04
2024-02-23T01:15:48.810Z,97725.77
2024-02-23T01:18:20.927Z,97728.88
2024-02-23T01:20:53.133Z,97730.27
2024-02-23T01:23:25.717Z,97727.87
2024-02-23T01:26:00.085Z,97726.84
2024-02-23T01:28:32.310Z,97725.48
2024-02-23T01:31:05.454Z,97722.55
2024-02-23T01:33:37.869Z,97721.19
2024-02-23T01:36:11.220Z,97721.52
2024-02-23T01:38:44.195Z,97722.55
2024-02-23T01:41:16.408Z,97725.77
2024-02-23T01:43:48.639Z,97711.73
2024-02-23T01:46:21.703Z,97708.48
2024-02-23T01:48:53.931Z,97713.10
2024-02-23T01:51:26.699Z,97723.55
2024-02-23T01:53:59.439Z,97725.62
2024-02-23T01:56:32.224Z,97734.70
2024-02-23T01:59:06.862Z,97737.77
2024-02-23T02:01:39.088Z,97738.96
2024-02-23T02:04:11.523Z,97732.80
2024-02-23T02:06:44.207Z,97734.16
2024-02-23T02:09:16.438Z,97735.20
2024-02-23T02:11:52.520Z,97730.71
2024-02-23T02:14:24.937Z,97735.33
2024-02-23T02:16:57.141Z,97730.53
2024-02-23T02:19:29.422Z,97727.77
2024-02-23T02:22:01.680Z,97733.09
2024-02-23T02:24:34.490Z,97733.59
2024-02-23T02:27:07.834Z,97740.81
2024-02-23T02:29:40.396Z,97741.49
2024-02-23T02:32:12.462Z,97740.81
2024-02-23T02:34:44.814Z,97736.20
2024-02-23T02:37:17.084Z,97737.26
2024-02-23T02:39:49.235Z,97740.19
2024-02-23T02:42:21.694Z,97736.60
2024-02-23T02:44:53.792Z,97733.70
2024-02-23T02:47:26.016Z,97734.91
2024-02-23T02:49:58.350Z,97728.74
2024-02-23T02:52:30.493Z,97732.88
2024-02-23T02:55:02.837Z,97738.55
2024-02-23T02:57:34.944Z,97733.92
2024-02-23T03:00:12.174Z,97729.98
2024-02-23T03:02:44.313Z,97727.59
2024-02-23T03:05:16.670Z,97729.83
2024-02-23T03:07:49.173Z,97732.07
2024-02-23T03:10:21.226Z,97740.48
2024-02-23T03:12:53.553Z,97743.23
2024-02-23T03:15:25.711Z,97742.21
2024-02-23T03:17:59.530Z,97734.17
2024-02-23T03:20:31.716Z,97733.16
2024-02-23T03:23:04.884Z,97730.77
2024-02-23T03:25:37.148Z,97733.02
2024-02-23T03:28:09.880Z,97737.30
2024-02-23T03:30:42.002Z,97740.55
2024-02-23T03:33:14.213Z,97738.86
2024-02-23T03:35:46.695Z,97737.83
2024-02-23T03:38:18.968Z,97741.95
2024-02-23T03:40:51.294Z,97741.27
2024-02-23T03:43:23.872Z,97748.98
2024-02-23T03:45:56.031Z,97753.08
2024-02-23T03:48:28.488Z,97757.70
2024-02-23T03:51:00.717Z,97756.52
2024-02-23T03:53:32.900Z,97760.27
2024-02-23T03:56:05.243Z,97768.50
2024-02-23T03:58:37.484Z,97771.59
2024-02-23T04:01:09.852Z,97774.50
2024-02-23T04:03:42.186Z,97775.20
2024-02-23T04:06:14.470Z,97783.42
2024-02-23T04:08:48.961Z,97781.38
2024-02-23T04:11:22.608Z,97788.92
2024-02-23T04:13:54.909Z,97790.97
2024-02-23T04:16:28.743Z,97788.23
2024-02-23T04:19:01.497Z,97791.81
2024-02-23T04:21:33.809Z,97792.52
2024-02-23T04:24:06.089Z,97794.23
2024-02-23T04:26:38.462Z,97798.16
2024-02-23T04:29:10.886Z,97804.66
2024-02-23T04:31:42.908Z,97817.16
2024-02-23T04:34:17.359Z,97818.88
2024-02-23T04:36:49.424Z,97816.98
2024-02-23T04:39:21.731Z,97817.34
2024-02-23T04:41:55.120Z,97821.80
2024-02-23T04:44:27.600Z,97817.86
2024-02-23T04:46:59.742Z,97822.99
2024-02-23T04:49:31.940Z,97827.10
2024-02-23T04:52:04.071Z,97825.05
2024-02-23T04:54:36.150Z,97825.90
2024-02-23T04:57:08.501Z,97826.23
2024-02-23T04:59:40.667Z,97827.43
2024-02-23T05:02:12.942Z,97833.27
2024-02-23T05:04:45.405Z,97835.15
2024-02-23T05:07:17.538Z,97834.63
2024-02-23T05:09:49.773Z,97838.91
2024-02-23T05:12:21.974Z,97837.73
2024-02-23T05:14:54.594Z,97830.69
2024-02-23T05:17:26.803Z,97840.63
2024-02-23T05:19:59.089Z,97840.13
2024-02-23T05:22:31.238Z,97840.48
2024-02-23T05:25:04.787Z,97839.95
2024-02-23T05:27:37.406Z,97855.54
2024-02-23T05:30:11.813Z,97873.17
2024-02-23T05:32:44.293Z,97890.11
2024-02-23T05:35:16.874Z,97903.64
2024-02-23T05:37:49.150Z,97918.38
2024-02-23T05:40:21.792Z,97921.46
2024-02-23T05:42:53.974Z,97927.80
2024-02-23T05:45:26.111Z,97935.31
2024-02-23T05:47:58.386Z,97932.77
2024-02-23T05:50:30.595Z,97939.79
2024-02-23T05:53:02.780Z,97946.82
2024-02-23T05:55:35.019Z,97942.52
2024-02-23T05:58:07.347Z,97938.25
2024-02-23T06:00:40.129Z,97928.15
2024-02-23T06:03:12.313Z,97924.02
2024-02-23T06:05:44.668Z,97924.37
2024-02-23T06:08:17.029Z,97926.94
2024-02-23T06:10:49.336Z,97931.05
2024-02-23T06:13:21.676Z,97933.28
2024-02-23T06:15:55.076Z,97932.42
2024-02-23T06:18:27.184Z,97939.45
2024-02-23T06:20:59.405Z,97946.13
2024-02-23T06:23:31.929Z,97943.22
2024-02-23T06:26:04.286Z,97944.93
2024-02-23T06:28:38.358Z,97947.84
2024-02-23T06:31:11.287Z,97955.88
2024-02-23T06:33:43.613Z,97956.91
2024-02-23T06:36:15.829Z,97959.15
2024-02-23T06:38:48.129Z,97961.55
2024-02-23T06:41:20.463Z,97961.89
2024-02-23T06:43:53.570Z,97963.77
2024-02-23T06:46:25.699Z,97964.30
2024-02-23T06:48:58.400Z,97970.97
2024-02-23T06:51:31.107Z,97983.65
2024-02-23T06:54:04.968Z,97991.36
2024-02-23T06:56:37.678Z,97997.52
2024-02-23T06:59:09.793Z,98001.83
2024-02-23T07:01:52.155Z,98009.35
2024-02-23T07:04:24.725Z,98014.67
2024-02-23T07:06:57.390Z,98018.09
2024-02-23T07:09:29.719Z,98021.34
2024-02-23T07:12:02.338Z,98021.69
2024-02-23T07:14:34.721Z,98019.14
2024-02-23T07:17:07.124Z,98017.92
2024-02-23T07:19:39.399Z,98015.36
2024-02-23T07:22:11.625Z,98019.31
2024-02-23T07:24:45.122Z,98019.30
2024-02-23T07:27:17.286Z,98023.25
2024-02-23T07:29:49.458Z,98023.24
2024-02-23T07:32:21.834Z,98019.48
2024-02-23T07:34:54.614Z,98021.17
2024-02-23T07:37:28.167Z,98028.04
2024-02-23T07:40:00.535Z,98030.45
2024-02-23T07:42:32.883Z,98029.09
2024-02-23T07:45:05.541Z,98030.27
2024-02-23T07:47:37.901Z,98030.46
2024-02-23T07:50:11.409Z,98029.93
2024-02-23T07:52:43.868Z,98032.67
2024-02-23T07:55:17.521Z,98029.59
2024-02-23T07:57:49.913Z,98029.93
2024-02-23T08:00:24.462Z,98033.71
2024-02-23T08:02:58.130Z,98035.77
2024-02-23T08:05:30.726Z,98034.90
2024-02-23T08:08:03.076Z,98035.93
2024-02-23T08:10:35.380Z,98033.53
2024-02-23T08:13:07.997Z,98034.21
2024-02-23T08:15:40.253Z,98035.42
2024-02-23T08:18:12.798Z,98032.34
2024-02-23T08:20:45.069Z,98031.80
2024-02-23T08:23:17.321Z,98037.31
2024-02-23T08:25:49.543Z,98038.14
2024-02-23T08:28:21.890Z,98040.39
2024-02-23T08:30:54.431Z,98041.92
2024-02-23T08:33:26.593Z,98043.98
2024-02-23T08:35:58.931Z,98045.21
2024-02-23T08:38:31.559Z,98045.37
2024-02-23T08:41:04.826Z,98048.80
2024-02-23T08:43:37.361Z,98042.79
2024-02-23T08:46:10.635Z,98042.25
2024-02-23T08:48:43.398Z,98044.63
2024-02-23T08:51:16.058Z,98048.57
2024-02-23T08:53:48.258Z,98051.28
2024-02-23T08:56:20.515Z,98049.53
2024-02-23T08:58:52.882Z,98052.08
2024-02-23T09:01:25.240Z,98051.70
2024-02-23T09:03:57.627Z,98056.98
2024-02-23T09:06:30.255Z,98065.72
2024-02-23T09:09:02.813Z,98069.64
2024-02-23T09:11:35.235Z,98075.46
2024-02-23T09:14:07.776Z,98071.66
2024-02-23T09:16:40.054Z,98080.05
2024-02-23T09:19:12.449Z,98085.20
2024-02-23T09:21:44.658Z,98079.54
2024-02-23T09:24:17.360Z,98073.69
2024-02-23T09:26:51.701Z,98078.50
2024-02-23T09:29:23.984Z,98079.88
2024-02-23T09:31:56.492Z,98079.35
2024-02-23T09:34:28.836Z,98080.55
2024-02-23T09:37:00.999Z,98084.14
2024-02-23T09:39:33.148Z,98086.73
2024-02-23T09:42:09.265Z,98091.55
2024-02-23T09:44:39.846Z,98094.13
2024-02-23T09:47:13.250Z,98095.15
2024-02-23T09:49:46.535Z,98095.83
2024-02-23T09:52:19.739Z,98092.22
2024-02-23T09:54:52.281Z,98085.49
2024-02-23T09:57:25.509Z,98088.04
2024-02-23T09:59:58.646Z,98081.00
2024-02-23T10:02:32.963Z,98083.92
2024-02-23T10:05:06.063Z,98091.64
2024-02-23T10:07:38.784Z,98092.34
2024-02-23T10:10:13.187Z,98101.80
2024-02-23T10:12:46.126Z,98111.60
2024-02-23T10:15:19.052Z,98119.69
2024-02-23T10:17:51.346Z,98130.88
2024-02-23T10:20:23.741Z,98139.31
2024-02-23T10:22:56.651Z,98148.95
2024-02-23T10:25:28.716Z,98156.86
2024-02-23T10:28:01.317Z,98169.07
2024-02-23T10:30:33.555Z,98170.10
2024-02-23T10:33:07.684Z,98172.50
2024-02-23T10:35:43.322Z,98175.94
2024-02-23T10:38:19.542Z,98174.91
2024-02-23T10:40:53.032Z,98176.11
2024-02-23T10:43:32.413Z,98173.20
2024-02-23T10:46:09.254Z,98168.56
2024-02-23T10:48:43.347Z,98174.92
2024-02-23T10:51:20.724Z,98177.34
2024-02-23T10:53:57.392Z,98181.46
2024-02-23T10:56:30.035Z,98185.94
2024-02-23T10:59:02.609Z,98188.84
2024-02-23T11:01:37.536Z,98187.30
2024-02-23T11:04:12.411Z,98192.13
2024-02-23T11:06:51.187Z,98190.05
2024-02-23T11:09:27.321Z,98195.55
2024-02-23T11:12:00.977Z,98198.98
2024-02-23T11:14:38.115Z,98201.04
2024-02-23T11:17:20.205Z,98196.75
2024-02-23T11:19:56.705Z,98195.89
2024-02-23T11:22:37.688Z,98198.64
2024-02-23T11:25:12.433Z,98197.44
2024-02-23T11:27:45.007Z,98198.30
2024-02-23T11:30:21.627Z,98205.15
2024-02-23T11:33:01.221Z,98212.04
2024-02-23T11:35:33.756Z,98218.05
2024-02-23T11:38:08.066Z,98216.69
2024-02-23T11:40:41.052Z,98220.64
2024-02-23T11:43:14.879Z,98227.50
2024-02-23T11:45:49.315Z,98224.08
2024-02-23T11:48:23.924Z,98223.58
2024-02-23T11:50:57.994Z,98230.79
2024-02-23T11:53:31.404Z,98233.53
2024-02-23T11:56:04.232Z,98225.80
2024-02-23T11:58:36.759Z,98218.56
2024-02-23T12:01:09.086Z,98214.80
2024-02-23T12:03:42.024Z,98219.60
2024-02-23T12:06:16.745Z,98215.64
2024-02-23T12:08:49.836Z,98218.21
2024-02-23T12:11:22.266Z,98231.77
2024-02-23T12:13:55.050Z,98233.33
2024-02-23T12:16:28.087Z,98236.73
2024-02-23T12:19:03.377Z,98239.98
2024-02-23T12:21:38.580Z,98232.60
2024-02-23T12:24:11.601Z,98229.12
2024-02-23T12:26:43.767Z,98230.13
2024-02-23T12:29:16.095Z,98236.11
2024-02-23T12:31:48.423Z,98237.64
2024-02-23T12:34:22.303Z,98239.70
2024-02-23T12:36:54.483Z,98239.36
2024-02-23T12:39:27.898Z,98241.09
2024-02-23T12:42:00.202Z,98242.30
2024-02-23T12:44:32.540Z,98243.34
2024-02-23T12:47:05.138Z,98246.77
2024-02-23T12:49:37.494Z,98245.92
2024-02-23T12:52:10.078Z,98243.52
2024-02-23T12:54:43.271Z,98241.27
2024-02-23T12:57:15.589Z,98243.83
2024-02-23T12:59:47.602Z,98245.39
2024-02-23T13:02:20.308Z,98250.35
2024-02-23T13:04:52.508Z,98246.56
2024-02-23T13:07:24.579Z,98249.83
2024-02-23T13:09:56.761Z,98250.35
2024-02-23T13:12:29.089Z,98245.33
2024-02-23T13:15:01.528Z,98243.77
2024-02-23T13:17:33.983Z,98244.96
2024-02-23T13:20:11.682Z,98249.42
2024-02-23T13:22:44.448Z,98258.36
2024-02-23T13:25:16.608Z,98263.17
2024-02-23T13:27:48.713Z,98265.42
2024-02-23T13:30:21.244Z,98270.92
2024-02-23T13:32:54.483Z,98271.63
2024-02-23T13:35:27.182Z,98277.30
2024-02-23T13:37:59.420Z,98276.27
2024-02-23T13:40:32.904Z,98278.51
2024-02-23T13:43:05.341Z,98276.79
2024-02-23T13:45:53.161Z,98279.55
2024-02-23T13:48:25.511Z,98277.65
2024-02-23T13:50:57.948Z,98273.35
2024-02-23T13:53:30.275Z,98268.20
2024-02-23T13:56:02.990Z,98272.31
2024-02-23T13:58:35.306Z,98279.89
2024-02-23T14:01:07.687Z,98285.89
2024-02-23T14:03:40.217Z,98282.11
2024-02-23T14:06:12.665Z,98282.13
2024-02-23T14:08:45.568Z,98282.99
2024-02-23T14:11:19.386Z,98286.65
2024-02-23T14:13:52.215Z,98281.67
2024-02-23T14:16:25.696Z,98278.58
2024-02-23T14:18:57.979Z,98277.90
2024-02-23T14:21:30.656Z,98279.79
2024-02-23T14:24:03.019Z,98278.40
2024-02-23T14:26:35.603Z,98273.77
2024-02-23T14:29:07.866Z,98269.11
2024-02-23T14:31:39.927Z,98263.97
2024-02-23T14:34:12.176Z,98262.77
2024-02-23T14:36:45.146Z,98260.73
2024-02-23T14:39:17.391Z,98262.26
2024-02-23T14:41:49.632Z,98267.92
2024-02-23T14:44:22.447Z,98274.81
2024-02-23T14:46:55.076Z,98281.53
2024-02-23T14:49:27.504Z,98281.19
2024-02-23T14:51:59.856Z,98280.35
2024-02-23T14:54:32.037Z,98284.48
2024-02-23T14:57:04.990Z,98286.38
2024-02-23T14:59:42.737Z,98287.41
2024-02-23T15:02:21.021Z,98281.95
2024-02-23T15:04:53.393Z,98284.00
2024-02-23T15:07:25.822Z,98281.78
2024-02-23T15:09:58.066Z,98283.67
2024-02-23T15:12:30.593Z,98280.76
2024-02-23T15:15:04.818Z,98281.45
2024-02-23T15:17:37.289Z,98278.55
2024-02-23T15:20:12.395Z,98281.14
2024-02-23T15:22:47.036Z,98278.73
2024-02-23T15:25:19.574Z,98281.98
2024-02-23T15:27:53.950Z,98285.27
2024-02-23T15:30:26.817Z,98292.48
2024-02-23T15:32:59.239Z,98298.48
2024-02-23T15:35:31.483Z,98296.95
2024-02-23T15:38:03.663Z,98299.69
2024-02-23T15:40:35.801Z,98296.10
2024-02-23T15:43:08.311Z,98295.58
2024-02-23T15:45:40.436Z,98298.84
2024-02-23T15:48:14.752Z,98303.64
2024-02-23T15:51:06.452Z,98303.65
2024-02-23T15:53:39.844Z,98300.02
2024-02-23T15:56:12.561Z,98296.08
2024-02-23T15:58:44.769Z,98292.48
2024-02-23T16:01:17.078Z,98292.13
2024-02-23T16:03:49.386Z,98291.79
2024-02-23T16:06:21.772Z,98294.89
2024-02-23T16:08:53.890Z,98290.40
2024-02-23T16:11:26.203Z,98288.68
2024-02-23T16:13:58.623Z,98293.48
2024-02-23T16:16:30.986Z,98289.71
2024-02-23T16:19:04.455Z,98293.30
2024-02-23T16:21:38.802Z,98293.98
2024-02-23T16:24:11.335Z,98290.39
2024-02-23T16:26:43.532Z,98290.55
2024-02-23T16:29:15.979Z,98285.57
2024-02-23T16:31:48.267Z,98283.52
2024-02-23T16:34:20.304Z,98284.54
2024-02-23T16:36:52.416Z,98287.27
2024-02-23T16:39:24.423Z,98295.00
2024-02-23T16:41:56.781Z,98290.55
2024-02-23T16:44:28.949Z,98285.21
2024-02-23T16:47:01.139Z,98285.23
2024-02-23T16:49:33.594Z,98290.02
2024-02-23T16:52:06.242Z,98295.33
2024-02-23T16:54:38.594Z,98296.52
2024-02-23T16:57:11.575Z,98301.96
2024-02-23T16:59:43.789Z,98296.80
2024-02-23T17:02:16.047Z,98290.48
2024-02-23T17:04:48.233Z,98288.42
2024-02-23T17:07:20.793Z,98283.94
2024-02-23T17:09:52.943Z,98291.67
2024-02-23T17:12:25.714Z,98302.62
2024-02-23T17:14:59.659Z,98305.70
2024-02-23T17:17:31.894Z,98304.33
2024-02-23T17:20:05.471Z,98302.63
2024-02-23T17:22:38.099Z,98302.96
2024-02-23T17:25:11.020Z,98300.40
2024-02-23T17:27:43.248Z,98298.85
2024-02-23T17:30:16.183Z,98299.20
2024-02-23T17:32:48.627Z,98298.82
2024-02-23T17:35:21.093Z,98297.98
2024-02-23T17:37:53.352Z,98302.25
2024-02-23T17:40:25.586Z,98307.03
2024-02-23T17:42:58.083Z,98305.48
2024-02-23T17:45:30.270Z,98303.44
2024-02-23T17:48:02.925Z,98306.86
2024-02-23T17:50:35.204Z,98299.65
2024-02-23T17:53:07.686Z,98302.55
2024-02-23T17:55:39.874Z,98301.35
2024-02-23T17:58:19.671Z,98301.69
2024-02-23T18:00:53.254Z,98296.91
2024-02-23T18:03:25.500Z,98297.41
2024-02-23T18:05:58.384Z,98293.45
2024-02-23T18:08:30.568Z,98289.00
2024-02-23T18:11:06.110Z,98280.60
2024-02-23T18:13:40.899Z,98282.64
2024-02-23T18:16:15.134Z,98282.99
2024-02-23T18:18:47.795Z,98279.05
2024-02-23T18:23:55.542Z,98270.65
2024-02-23T18:26:27.720Z,98273.73
2024-02-23T18:29:00.741Z,98271.17
2024-02-23T18:31:33.156Z,98269.80
2024-02-23T18:34:05.796Z,98272.73
2024-02-23T18:36:38.098Z,98272.39
2024-02-23T18:39:12.420Z,98274.62
2024-02-23T18:41:44.806Z,98270.32
2024-02-23T18:44:18.230Z,98266.55
2024-02-23T18:46:51.292Z,98265.17
2024-02-23T18:49:23.550Z,98265.18
2024-02-23T18:51:55.753Z,98254.90
2024-02-23T18:54:28.229Z,98260.20
2024-02-23T18:57:00.661Z,98266.37
2024-02-23T18:59:33.092Z,98263.80
2024-02-23T19:02:05.639Z,98259.67
2024-02-23T19:04:37.850Z,98255.05
2024-02-23T19:07:10.026Z,98254.69
2024-02-23T19:09:42.911Z,98253.50
2024-02-23T19:12:16.243Z,98253.33
2024-02-23T19:14:48.947Z,98251.45
2024-02-23T19:17:24.336Z,98251.61
2024-02-23T19:19:56.972Z,98247.85
2024-02-23T19:22:29.602Z,98247.52
2024-02-23T19:25:01.885Z,98245.45
2024-02-23T19:27:37.305Z,98236.54
2024-02-23T19:30:13.712Z,98236.52
2024-02-23T19:32:46.191Z,98235.85
2024-02-23T19:35:20.052Z,98233.11
2024-02-23T19:37:52.165Z,98229.83
2024-02-23T19:40:26.260Z,98227.25
2024-02-23T19:42:58.553Z,98223.65
2024-02-23T19:45:31.885Z,98220.40
2024-02-23T19:48:04.184Z,98217.48
2024-02-23T19:50:37.240Z,98214.05
2024-02-23T19:53:11.492Z,98209.07
2024-02-23T19:55:45.839Z,98207.52
2024-02-23T19:58:19.564Z,98192.77
2024-02-23T20:00:51.907Z,98190.55
2024-02-23T20:03:24.288Z,98191.20
2024-02-23T20:06:06.933Z,98181.09
2024-02-23T20:08:40.639Z,98175.45
2024-02-23T20:11:13.354Z,98167.05
2024-02-23T20:13:47.888Z,98168.08
2024-02-23T20:16:20.126Z,98160.88
2024-02-23T20:18:52.553Z,98159.16
2024-02-23T20:21:25.336Z,98155.37
2024-02-23T20:24:00.495Z,98168.23
2024-02-23T20:26:33.129Z,98165.14
2024-02-23T20:29:08.782Z,98165.48
2024-02-23T20:31:45.491Z,98161.73
2024-02-23T20:34:18.791Z,98160.87
2024-02-23T20:36:51.488Z,98159.65
2024-02-23T20:39:25.898Z,98155.55
2024-02-23T20:41:58.171Z,98154.85
2024-02-23T20:44:30.956Z,98162.06
2024-02-23T20:47:03.594Z,98160.34
2024-02-23T20:49:36.404Z,98163.60
2024-02-23T20:52:11.360Z,98158.30
2024-02-23T20:54:47.770Z,98160.00
2024-02-23T20:57:20.606Z,98159.31
2024-02-23T20:59:53.210Z,98158.13
2024-02-23T21:02:25.563Z,98156.58
2024-02-23T21:04:58.237Z,98162.41
2024-02-23T21:07:30.578Z,98161.55
2024-02-23T21:10:03.641Z,98161.55
2024-02-23T21:12:39.156Z,98160.52
2024-02-23T21:15:12.548Z,98167.39
2024-02-23T21:17:44.998Z,98166.34
2024-02-23T21:20:18.651Z,98157.09
2024-02-23T21:22:51.001Z,98149.88
2024-02-23T21:25:23.277Z,98141.14
2024-02-23T21:27:55.916Z,98132.75
2024-02-23T21:30:28.353Z,98122.45
2024-02-23T21:33:00.839Z,98118.16
2024-02-23T21:35:35.731Z,98112.85
2024-02-23T21:38:09.653Z,98109.25
2024-02-23T21:40:42.040Z,98114.05
2024-02-23T21:43:14.284Z,98106.52
2024-02-23T21:45:46.540Z,98097.42
2024-02-23T21:48:18.792Z,98088.52
2024-02-23T21:50:51.373Z,98086.45
2024-02-23T21:53:23.731Z,98077.39
2024-02-23T21:55:56.511Z,98078.06
2024-02-23T21:58:28.761Z,98073.79
2024-02-23T22:01:01.366Z,98072.06
2024-02-23T22:03:34.114Z,98069.84
2024-02-23T22:06:07.428Z,98066.06
2024-02-23T22:08:40.052Z,98065.89
2024-02-23T22:11:12.357Z,98065.90
2024-02-23T22:13:48.720Z,98061.79
2024-02-23T22:16:20.924Z,98059.90
2024-02-23T22:18:52.999Z,98063.48
2024-02-23T22:21:25.356Z,98066.57
2024-02-23T22:23:58.011Z,98072.38
2024-02-23T22:26:33.679Z,98075.99
2024-02-23T22:29:05.995Z,98074.45
2024-02-23T22:31:38.363Z,98067.42
2024-02-23T22:34:10.568Z,98072.05
2024-02-23T22:36:43.984Z,98068.98
2024-02-23T22:39:16.126Z,98065.20
2024-02-23T22:41:48.484Z,98065.20
2024-02-23T22:44:20.829Z,98067.27
2024-02-23T22:46:55.792Z,98067.27
2024-02-23T22:49:28.171Z,98068.80
2024-02-23T22:52:00.375Z,98072.40
2024-02-23T22:54:32.501Z,98072.75
2024-02-23T22:57:05.076Z,98069.32
2024-02-23T22:59:37.170Z,98068.46
2024-02-23T23:02:09.503Z,98065.20
2024-02-23T23:04:41.783Z,98064.03
2024-02-23T23:07:14.059Z,98062.48
2024-02-23T23:09:46.559Z,98061.46
2024-02-23T23:12:18.831Z,98063.69
2024-02-23T23:14:51.004Z,98061.45
2024-02-23T23:17:23.204Z,98057.16
2024-02-23T23:19:55.332Z,98048.43
2024-02-23T23:22:27.744Z,98046.20
2024-02-23T23:24:59.752Z,98041.75
2024-02-23T23:27:32.026Z,98035.23
2024-02-23T23:30:04.417Z,98036.44
2024-02-23T23:32:36.782Z,98033.17
2024-02-23T23:35:09.946Z,98033.35
2024-02-23T23:37:42.846Z,98028.02
2024-02-23T23:40:17.427Z,98027.52
2024-02-23T23:42:49.635Z,98026.50
2024-02-23T23:45:21.824Z,98026.34
2024-02-23T23:47:54.142Z,98022.72
2024-02-23T23:50:26.522Z,98024.95
2024-02-23T23:52:58.693Z,98024.95
2024-02-23T23:55:31.314Z,98025.14
2024-02-23T23:58:04.359Z,98018.28
